Station: Tasman Island  

  Atmospheric Gas Attenuation - ITU Rec 676-11   ----------------- dB/100km -----------------
Date Time Temp RH % AH g/m3 Dew Point Wind Direction Speed kph Gust kph Barometer mB Rainfall Since 9am 24GHz 47GHz 76GHz 122GHz 134GHz 241GHz
04/09 13:20 10.9 50 4.97 0.9 22 33 1008.4 0 12.0 20.9 27.0 70.3 55.4 187.3
04/09 13:10 11.3 49 5 1 20 35 1008.4 0 12.0 20.8 27.0 70.2 55.5 187.6
04/09 13:00 10.9 51 5.07 1.2 19 32 1008.5 0 12.2 21.0 27.4 71.2 56.6 191.5
04/09 12:50 10.8 53 5.24 1.6 19 33 1008.7 0 12.5 21.3 28.0 73.0 58.7 198.9
04/09 12:40 11.1 55 5.54 2.4 17 24 1008.8 0 13.2 21.7 29.0 75.7 62.1 210.9
04/09 12:30 11.1 58 5.84 3.2 13 20 1009.1 0 13.8 22.2 30.1 78.6 65.8 223.8
04/09 12:20 11.8 55 5.79 3.1 17 26 1009.2 0 13.7 21.9 29.7 77.5 64.6 219.7
04/09 12:10 12.2 55 5.94 3.4 15 24 1009.4 0 14.0 22.0 30.1 78.6 66.1 225.0
04/09 12:00 10.8 55 5.44 2.1 19 28 1009.5 0 13.0 21.6 28.8 75.0 61.1 207.5
04/09 11:50 10.4 55 5.3 1.8 19 30 1009.5 0 12.7 21.5 28.4 74.0 59.7 202.6
04/09 11:40 9.8 58 5.38 1.9 19 28 1009.5 0 12.9 21.8 28.9 75.4 61.2 207.5
04/09 11:30 9.6 58 5.31 1.8 19 28 1009.6 0 12.7 21.7 28.7 74.9 60.5 205.0
04/09 11:20 9.4 60 5.43 2 17 26 1009.8 0 13.0 22.0 29.2 76.3 62.1 210.8
04/09 11:10 9.3 61 5.48 2.2 17 24 1009.8 0 13.1 22.1 29.5 76.9 62.8 213.2
04/09 11:00 9.5 59 5.37 1.9 13 24 1009.9 0 12.9 21.9 29.0 75.6 61.3 207.9
04/09 10:50 9.7 56 5.16 1.4 11 24 1010 0 12.4 21.5 28.2 73.3 58.6 198.4
04/09 10:40 9.7 54 4.98 0.9 11 22 1010 0 12.0 21.2 27.5 71.6 56.4 190.8
04/09 10:30 9.6 52 4.76 0.2 17 26 1009.9 0 11.6 20.9 26.7 69.5 53.8 181.7
04/09 10:20 9.9 54 5.04 1 19 30 1009.8 0 12.1 21.3 27.6 72.0 57.0 192.8
04/09 10:10 10.2 53 5.04 1.1 20 30 1009.5 0 12.1 21.2 27.5 71.7 56.8 192.0
04/09 10:00 10.6 55 5.37 1.9 17 24 1009.4 0 12.8 21.6 28.6 74.5 60.4 205.0
04/09 09:50 10.6 51 4.98 0.9 17 30 1009.8 0 12.0 21.0 27.2 70.8 55.8 188.6
04/09 09:40 10.5 54 5.24 1.6 9 24 1010 0 12.6 21.4 28.2 73.4 59.0 199.9
04/09 09:30 10 56 5.26 1.6 9 26 1009.9 0 12.6 21.6 28.4 74.0 59.6 201.9
04/09 09:20 9.7 56 5.16 1.4 11 26 1009.8 0 12.4 21.5 28.1 73.3 58.6 198.4
04/09 09:10 10 56 5.26 1.6 15 26 1010 0 12.6 21.6 28.4 74.0 59.6 202.0
04/09 09:00 9.8 56 5.2 1.5 19 33 1010.2 0 12.5 21.5 28.3 73.6 59.0 199.9
04/09 08:50 9.7 53 4.89 0.6 17 41 1010 0.8 11.8 21.1 27.2 70.7 55.3 187.0
04/09 08:40 9.5 55 5.01 0.9 17 33 1009.9 0.8 12.1 21.3 27.7 72.0 56.9 192.5
04/09 08:30 9.4 58 5.25 1.6 19 35 1009.9 0.8 12.6 21.7 28.6 74.5 59.9 203.0
04/09 08:20 9.3 56 5.03 1 19 35 1010.2 0.8 12.1 21.4 27.8 72.4 57.3 193.9
04/09 08:10 9.1 59 5.24 1.5 17 28 1010.4 0.8 12.6 21.8 28.7 74.7 60.0 203.4
04/09 08:00 9.1 61 5.41 2 17 30 1010.5 0.8 13.0 22.0 29.3 76.4 62.2 210.8
04/09 07:50 9 64 5.64 2.6 17 33 1010.3 0.8 13.5 22.4 30.2 78.8 65.1 221.1
04/09 07:40 8.9 62 5.43 2 17 30 1010.2 0.8 13.0 22.1 29.4 76.8 62.5 212.2
04/09 07:30 8.8 64 5.57 2.4 15 26 1010 0.8 13.3 22.3 30.0 78.3 64.4 218.5
04/09 07:20 8.7 63 5.45 2.1 13 26 1009.5 0.8 13.1 22.2 29.6 77.1 62.9 213.5
04/09 07:10 8.5 64 5.47 2.1 15 30 1009.3 0.8 13.1 22.2 29.7 77.5 63.3 214.8
04/09 07:00 8.6 62 5.33 1.7 17 33 1009 0.8 12.8 22.0 29.1 76.0 61.5 208.4
04/09 06:50 8.6 62 5.33 1.7 15 28 1008.9 0.8 12.8 22.0 29.1 76.0 61.5 208.4
04/09 06:40 8.4 61 5.18 1.3 15 33 1008.6 0.8 12.5 21.8 28.6 74.6 59.7 202.3
04/09 06:30 8.3 63 5.31 1.7 9 24 1008.5 0.8 12.8 22.0 29.1 76.0 61.4 208.2
04/09 06:20 8.3 63 5.31 1.7 17 33 1008.4 0.8 12.8 22.0 29.1 76.0 61.4 208.2
04/09 06:10 8.4 64 5.43 2 15 33 1008.6 0.8 13.0 22.2 29.6 77.1 62.8 213.2
04/09 06:00 8.3 66 5.57 2.3 22 41 1008.7 0.8 13.3 22.4 30.1 78.7 64.7 219.7
04/09 05:50 8.3 65 5.48 2.1 19 33 1008.8 0.8 13.1 22.3 29.8 77.8 63.6 215.7
04/09 05:40 8.5 65 5.55 2.3 15 28 1008.8 0.8 13.3 22.3 30.0 78.3 64.3 218.3
04/09 05:30 8.6 64 5.5 2.2 15 24 1008.6 0.8 13.2 22.2 29.8 77.6 63.6 215.7
04/09 05:20 8.5 64 5.47 2.1 15 26 1008.7 0.8 13.1 22.2 29.7 77.4 63.3 214.7
04/09 05:10 8.5 65 5.55 2.3 13 24 1008.6 0.8 13.3 22.3 30.0 78.2 64.3 218.2
04/09 05:00 8.5 64 5.47 2.1 11 33 1008.5 0.8 13.1 22.2 29.7 77.4 63.3 214.7
04/09 04:50 8.6 63 5.42 2 17 32 1008.2 0.8 13.0 22.1 29.4 76.8 62.5 212.2
04/09 04:40 8.8 65 5.66 2.6 11 35 1008 0.8 13.5 22.4 30.3 79.0 65.4 222.1
04/09 04:30 8.8 67 5.83 3 9 26 1007.6 0.8 13.9 22.7 30.9 80.7 67.5 229.5
04/09 04:20 8.7 66 5.71 2.7 9 24 1007.7 0.8 13.6 22.5 30.5 79.6 66.1 224.5
04/09 04:10 8.4 64 5.43 2 9 26 1007.4 0.8 13.0 22.1 29.5 77.0 62.8 213.0
04/09 04:00 8.1 66 5.49 2.1 7 26 1007.3 0.8 13.2 22.3 29.9 77.9 63.8 216.4
04/09 03:50 8 63 5.21 1.4 7 24 1007.2 0.8 12.6 21.9 28.8 75.2 60.3 204.4
04/09 03:40 8.1 64 5.33 1.7 7 26 1007.1 0.8 12.8 22.0 29.2 76.3 61.7 209.3
04/09 03:30 8.2 63 5.28 1.6 9 20 1006.9 0.8 12.7 21.9 29.0 75.7 61.0 206.9
04/09 03:20 8.1 64 5.33 1.7 6 15 1006.7 0.8 12.8 22.0 29.2 76.2 61.7 209.3
04/09 03:10 8.2 64 5.36 1.8 13 20 1006.3 0.8 12.9 22.0 29.3 76.4 62.0 210.2
04/09 03:00 8.2 65 5.45 2 11 43 1006.1 0.8 13.1 22.2 29.6 77.3 63.1 214.2
04/09 02:50 8.2 64 5.36 1.8 9 28 1006.1 0.8 12.9 22.0 29.3 76.4 62.0 210.2
04/09 02:40 7.9 65 5.34 1.7 9 26 1005.9 0.8 12.9 22.1 29.3 76.5 62.0 210.1
04/09 02:30 7.9 67 5.51 2.2 11 30 1005.9 0.8 13.2 22.3 29.9 78.2 64.1 217.6
04/09 02:20 7.9 66 5.42 1.9 13 22 1005.8 0.8 13.0 22.2 29.6 77.3 63.0 213.6
04/09 02:10 7.8 66 5.39 1.9 11 46 1005.6 0.8 13.0 22.2 29.5 77.0 62.7 212.5
04/09 02:00 7.9 66 5.42 2 11 26 1005.6 0.8 13.0 22.2 29.6 77.3 62.9 213.5
04/09 01:50 7.9 65 5.34 1.7 11 20 1005.5 0.8 12.9 22.0 29.3 76.4 61.9 210.0
04/09 01:40 7.8 66 5.39 1.9 13 30 1005.5 0.8 13.0 22.1 29.5 77.0 62.6 212.5
04/09 01:30 8.1 68 5.66 2.6 13 33 1005.2 0.8 13.5 22.5 30.4 79.5 65.8 223.5
04/09 01:20 7.8 66 5.39 1.9 11 26 1005.1 0.8 13.0 22.1 29.5 77.0 62.6 212.4
04/09 01:10 7.5 67 5.37 1.8 13 33 1004.8 0.8 12.9 22.2 29.5 77.1 62.6 212.3
04/09 01:00 7.5 67 5.37 1.8 11 28 1004.8 0.8 12.9 22.2 29.5 77.1 62.6 212.3
04/09 00:50 7.5 66 5.29 1.6 13 37 1004.3 0.8 12.8 22.0 29.2 76.2 61.6 208.6
04/09 00:40 7.4 68 5.41 1.9 13 35 1004.2 0.8 13.0 22.2 29.7 77.5 63.1 214.2
04/09 00:30 7.4 67 5.33 1.7 15 46 1003.9 0.8 12.8 22.1 29.4 76.7 62.1 210.6
04/09 00:20 7.4 68 5.41 1.9 13 52 1003.7 0.8 13.0 22.2 29.7 77.5 63.1 214.1
04/09 00:10 7.3 68 5.38 1.8 15 39 1003.8 0.8 13.0 22.2 29.6 77.3 62.8 213.0
04/09 00:00 7.2 67 5.26 1.5 15 43 1003.6 0.8 12.7 22.0 29.2 76.1 61.4 208.0
03/09 23:50 7.3 68 5.38 1.8 13 41 1004.1 0.8 13.0 22.2 29.6 77.3 62.8 213.1
03/09 23:40 7.2 68 5.34 1.7 13 37 1004.1 0.8 12.9 22.2 29.5 77.0 62.4 211.6
03/09 23:30 7.2 66 5.18 1.3 11 41 1004.4 0.8 12.5 21.9 28.9 75.4 60.4 204.6
03/09 23:20 7.2 66 5.18 1.3 11 35 1004.3 0.8 12.5 21.9 28.9 75.4 60.4 204.6
03/09 23:10 7 67 5.19 1.3 13 30 1004.3 0.8 12.6 22.0 29.0 75.7 60.7 205.5
03/09 23:00 7 65 5.04 0.9 15 37 1004.1 0.8 12.2 21.8 28.4 74.1 58.8 198.9
03/09 22:50 7 66 5.12 1.1 11 43 1004 0.8 12.4 21.9 28.7 74.9 59.8 202.4
03/09 22:40 7 65 5.04 0.9 13 41 1003.8 0.8 12.2 21.7 28.4 74.1 58.8 198.9
03/09 22:30 7.2 63 4.95 0.6 15 35 1003.9 0.8 12.0 21.6 28.0 73.0 57.5 194.5
03/09 22:20 7.1 66 5.15 1.2 13 35 1003.9 0.8 12.5 21.9 28.8 75.1 60.1 203.4
03/09 22:10 7.2 70 5.5 2.1 15 41 1004 0.8 13.2 22.4 30.1 78.6 64.4 218.7
03/09 22:00 7 69 5.35 1.7 11 33 1004.2 0.8 12.9 22.2 29.6 77.3 62.7 212.6
03/09 21:50 7 70 5.43 1.9 11 32 1004.2 0.8 13.1 22.4 29.9 78.1 63.7 216.2
03/09 21:40 7 70 5.43 1.9 13 46 1004.1 0.8 13.1 22.4 29.9 78.1 63.7 216.1
03/09 21:30 7 67 5.19 1.3 13 44 1003.8 0.6 12.6 22.0 29.0 75.6 60.7 205.4
03/09 21:20 7 68 5.27 1.5 13 33 1003.8 0.6 12.7 22.1 29.3 76.4 61.7 209.0
03/09 21:10 7.2 70 5.5 2.1 13 32 1003.6 0.6 13.2 22.4 30.1 78.6 64.4 218.6
03/09 21:00 7.3 63 4.98 0.7 15 43 1003.7 0.6 12.1 21.6 28.1 73.2 57.8 195.5
03/09 20:50 7.4 62 4.93 0.6 11 37 1003.4 0.6 12.0 21.5 27.8 72.6 57.1 193.0

Last Refresh: 04-Sep-2026 12:58:06

Bureau of Meteorology